Mill Village, Pennsylvania
Current Conditions -  °F | °C
As of 1:51 PM on Saturday 25 Oct 2014 (Local Time) from KERI Reporting Station
Overcast Overcast  
Wind Chill: 60°   Ceiling: 4000
Heat Index: 60°   Visibility: 10mi
Dew Point: 51°   Wind: 18mph
Humidity: 72%   Direction: 250°WSW
Pressure: 29.74"   Gusts: 31mph
Location:  41.88°N, 79.97°W
Report Text: KERI 251751Z 25016G27KT 10SM OVC040 16/11 A2974 RMK AO2 PK WND 26027/1749 SLP071 T01560106 10183 20117 56021
Loading
Personal Weather Stations






























Interactive Weather Map
Tropical Storm Tracking
New forecast layout! Learn more

10-Day Weather Forecast

Advertisements
Track Severe Weather on mobile